createdAt,value
2022-11-24T00:00:11.935Z,82.39
2022-11-24T00:00:23.850Z,82.23
2022-11-24T00:00:35.772Z,82.16
2022-11-24T00:00:47.654Z,82.73
2022-11-24T00:01:08.387Z,82.49
2022-11-24T00:01:25.690Z,82.37
2022-11-24T00:01:37.564Z,82.13
2022-11-24T00:01:49.507Z,82.42
2022-11-24T00:02:01.631Z,82.31
2022-11-24T00:02:13.909Z,82.34
2022-11-24T00:02:25.990Z,82.33
2022-11-24T00:02:38.120Z,82.71
2022-11-24T00:02:50.228Z,82.51
2022-11-24T00:03:04.627Z,82.72
2022-11-24T00:03:17.028Z,82.71
2022-11-24T00:03:29.544Z,82.35
2022-11-24T00:03:41.807Z,82.70
2022-11-24T00:03:55.311Z,82.15
2022-11-24T00:04:07.527Z,82.59
2022-11-24T00:04:19.409Z,82.32
2022-11-24T00:04:31.446Z,82.49
2022-11-24T00:04:43.477Z,82.66
2022-11-24T00:04:55.335Z,82.64
2022-11-24T00:05:07.775Z,82.31
2022-11-24T00:05:19.672Z,82.39
2022-11-24T00:05:31.656Z,82.45
2022-11-24T00:05:43.874Z,82.25
2022-11-24T00:05:55.746Z,82.23
2022-11-24T00:06:10.777Z,82.29
2022-11-24T00:06:23.852Z,82.44
2022-11-24T00:06:35.971Z,82.35
2022-11-24T00:06:47.846Z,82.30
2022-11-24T00:06:59.701Z,82.56
2022-11-24T00:07:11.646Z,82.50
2022-11-24T00:07:23.605Z,82.60
2022-11-24T00:07:35.588Z,82.63
2022-11-24T00:07:47.539Z,82.84
2022-11-24T00:07:59.495Z,82.83
2022-11-24T00:08:12.114Z,82.62
2022-11-24T00:08:24.034Z,82.77
2022-11-24T00:08:36.767Z,82.85
2022-11-24T00:08:48.677Z,82.83
2022-11-24T00:09:01.177Z,82.59
2022-11-24T00:09:13.141Z,82.81
2022-11-24T00:09:25.071Z,82.78
2022-11-24T00:09:36.984Z,82.81
2022-11-24T00:09:48.855Z,82.72
2022-11-24T00:10:00.725Z,82.45
2022-11-24T00:10:12.626Z,82.43
2022-11-24T00:10:24.507Z,82.48
2022-11-24T00:10:36.419Z,82.29
2022-11-24T00:10:48.292Z,82.46
2022-11-24T00:11:08.346Z,82.61
2022-11-24T00:11:23.139Z,82.16
2022-11-24T00:11:36.214Z,82.40
2022-11-24T00:11:48.085Z,82.52
2022-11-24T00:12:01.266Z,82.51
2022-11-24T00:12:13.171Z,82.38
2022-11-24T00:12:25.065Z,82.38
2022-11-24T00:12:36.940Z,82.58
2022-11-24T00:12:48.798Z,82.77
2022-11-24T00:13:00.666Z,82.83
2022-11-24T00:13:12.738Z,82.82
2022-11-24T00:13:24.604Z,82.59
2022-11-24T00:13:38.955Z,82.37
2022-11-24T00:13:51.374Z,82.66
2022-11-24T00:14:04.562Z,82.52
2022-11-24T00:14:16.474Z,82.81
2022-11-24T00:14:28.394Z,82.60
2022-11-24T00:14:40.261Z,82.74
2022-11-24T00:14:52.187Z,82.51
2022-11-24T00:15:04.317Z,82.42
2022-11-24T00:15:16.320Z,82.55
2022-11-24T00:15:28.234Z,82.53
2022-11-24T00:15:40.093Z,82.40
2022-11-24T00:15:51.963Z,82.44
2022-11-24T00:16:05.817Z,82.32
2022-11-24T00:16:22.878Z,82.10
2022-11-24T00:16:36.962Z,82.08
2022-11-24T00:16:48.920Z,82.12
2022-11-24T00:17:00.902Z,82.17
2022-11-24T00:17:12.806Z,81.90
2022-11-24T00:17:24.685Z,82.07
2022-11-24T00:17:36.560Z,81.84
2022-11-24T00:17:48.432Z,81.92
2022-11-24T00:18:00.325Z,81.69
2022-11-24T00:18:12.179Z,81.46
2022-11-24T00:18:24.044Z,81.68
2022-11-24T00:18:36.168Z,81.76
2022-11-24T00:18:50.139Z,81.92
2022-11-24T00:19:04.190Z,82.04
2022-11-24T00:19:19.734Z,82.01
2022-11-24T00:19:31.934Z,82.36
2022-11-24T00:19:43.942Z,82.45
2022-11-24T00:19:55.827Z,82.64
2022-11-24T00:20:08.416Z,82.87
2022-11-24T00:20:20.278Z,82.96
2022-11-24T00:20:32.161Z,82.82
2022-11-24T00:20:51.990Z,82.58
2022-11-24T00:21:04.006Z,82.49
2022-11-24T00:21:18.261Z,82.77
2022-11-24T00:21:31.715Z,82.78
2022-11-24T00:21:43.688Z,82.60
2022-11-24T00:21:55.559Z,82.63
2022-11-24T00:22:07.447Z,82.69
2022-11-24T00:22:19.309Z,82.69
2022-11-24T00:22:31.181Z,82.67
2022-11-24T00:22:43.091Z,82.90
2022-11-24T00:22:55.936Z,82.68
2022-11-24T00:23:07.933Z,82.40
2022-11-24T00:23:19.864Z,82.32
2022-11-24T00:23:31.891Z,82.38
2022-11-24T00:23:44.761Z,82.33
2022-11-24T00:23:57.576Z,82.57
2022-11-24T00:24:09.731Z,82.61
2022-11-24T00:24:21.599Z,82.87
2022-11-24T00:24:33.717Z,83.02
2022-11-24T00:24:45.834Z,82.99
2022-11-24T00:24:57.711Z,83.28
2022-11-24T00:25:09.625Z,83.06
2022-11-24T00:25:21.613Z,83.03
2022-11-24T00:25:33.519Z,83.00
2022-11-24T00:25:45.399Z,82.82
2022-11-24T00:26:05.536Z,82.85
2022-11-24T00:26:18.856Z,82.88
2022-11-24T00:26:36.169Z,83.01
2022-11-24T00:26:48.067Z,82.88
2022-11-24T00:26:59.993Z,82.85
2022-11-24T00:27:11.897Z,82.57
2022-11-24T00:27:23.767Z,82.85
2022-11-24T00:27:35.639Z,82.55
2022-11-24T00:27:47.571Z,82.42
2022-11-24T00:27:59.444Z,82.51
2022-11-24T00:28:11.332Z,82.69
2022-11-24T00:28:23.206Z,82.39
2022-11-24T00:28:36.796Z,82.49
2022-11-24T00:28:50.433Z,82.26
2022-11-24T00:29:05.543Z,82.40
2022-11-24T00:29:17.586Z,82.52
2022-11-24T00:29:29.492Z,82.66
2022-11-24T00:29:41.380Z,82.65
2022-11-24T00:29:53.310Z,82.53
2022-11-24T00:30:05.551Z,82.38
2022-11-24T00:30:17.440Z,82.16
2022-11-24T00:30:29.395Z,81.93
2022-11-24T00:30:41.357Z,81.79
2022-11-24T00:30:53.309Z,82.07
2022-11-24T00:31:17.171Z,81.95
2022-11-24T00:31:35.226Z,81.87
2022-11-24T00:31:47.218Z,81.93
2022-11-24T00:31:59.160Z,82.17
2022-11-24T00:32:11.033Z,82.04
2022-11-24T00:32:22.949Z,82.44
2022-11-24T00:32:34.811Z,82.55
2022-11-24T00:32:46.703Z,82.30
2022-11-24T00:32:58.583Z,82.75
2022-11-24T00:33:10.467Z,82.56
2022-11-24T00:33:22.364Z,82.54
2022-11-24T00:33:34.266Z,82.62
2022-11-24T00:33:48.115Z,82.28
2022-11-24T00:34:01.996Z,82.07
2022-11-24T00:34:14.533Z,81.87
2022-11-24T00:34:26.426Z,81.86
2022-11-24T00:34:38.678Z,82.06
2022-11-24T00:34:50.557Z,81.97
2022-11-24T00:35:02.457Z,82.09
2022-11-24T00:35:14.439Z,82.38
2022-11-24T00:35:26.320Z,82.37
2022-11-24T00:35:38.199Z,82.61
2022-11-24T00:36:00.418Z,82.86
2022-11-24T00:36:12.544Z,82.79
2022-11-24T00:36:27.094Z,82.54
2022-11-24T00:36:39.879Z,82.73
2022-11-24T00:36:51.759Z,82.68
2022-11-24T00:37:03.650Z,82.71
2022-11-24T00:37:15.542Z,82.68
2022-11-24T00:37:27.440Z,82.78
2022-11-24T00:37:39.327Z,82.86
2022-11-24T00:37:51.203Z,82.79
2022-11-24T00:38:03.090Z,82.57
2022-11-24T00:38:14.964Z,82.54
2022-11-24T00:38:27.173Z,82.85
2022-11-24T00:38:39.107Z,82.46
2022-11-24T00:38:59.159Z,82.39
2022-11-24T00:39:15.370Z,82.52
2022-11-24T00:39:27.271Z,82.42
2022-11-24T00:39:39.148Z,82.43
2022-11-24T00:39:51.035Z,82.71
2022-11-24T00:40:03.012Z,82.90
2022-11-24T00:40:14.896Z,82.36
2022-11-24T00:40:29.690Z,82.40
2022-11-24T00:40:45.540Z,82.39
2022-11-24T00:40:57.495Z,82.45
2022-11-24T00:41:11.913Z,82.02
2022-11-24T00:41:25.397Z,82.32
2022-11-24T00:41:37.778Z,81.94
2022-11-24T00:41:49.834Z,81.87
2022-11-24T00:42:01.987Z,81.77
2022-11-24T00:42:14.284Z,81.72
2022-11-24T00:42:26.202Z,81.95
2022-11-24T00:42:38.084Z,81.74
2022-11-24T00:42:49.953Z,81.64
2022-11-24T00:43:01.925Z,81.37
2022-11-24T00:43:13.926Z,81.65
2022-11-24T00:43:25.806Z,81.32
2022-11-24T00:43:37.971Z,81.55
2022-11-24T00:43:50.028Z,81.37
2022-11-24T00:44:02.030Z,81.91
2022-11-24T00:44:13.977Z,81.77
2022-11-24T00:44:25.873Z,81.87
2022-11-24T00:44:37.765Z,81.85
2022-11-24T00:44:49.641Z,82.02
2022-11-24T00:45:12.918Z,81.80
2022-11-24T00:45:25.569Z,81.87
2022-11-24T00:45:37.475Z,81.91
2022-11-24T00:45:49.510Z,81.79
2022-11-24T00:46:02.042Z,81.60
2022-11-24T00:46:14.081Z,81.75
2022-11-24T00:46:27.124Z,81.92
2022-11-24T00:46:39.277Z,82.25
2022-11-24T00:46:51.371Z,82.18
2022-11-24T00:47:03.441Z,82.25
2022-11-24T00:47:17.708Z,82.04
2022-11-24T00:47:32.715Z,81.88
2022-11-24T00:47:44.587Z,81.66
2022-11-24T00:47:56.466Z,81.86
2022-11-24T00:48:08.756Z,81.35
2022-11-24T00:48:20.741Z,81.43
2022-11-24T00:48:32.619Z,81.55
2022-11-24T00:48:44.566Z,81.76
2022-11-24T00:48:56.969Z,81.62
2022-11-24T00:49:09.107Z,81.72
2022-11-24T00:49:20.998Z,81.78
2022-11-24T00:49:32.921Z,81.84
2022-11-24T00:49:44.833Z,81.74
2022-11-24T00:49:56.712Z,81.74
2022-11-24T00:50:08.974Z,81.75
2022-11-24T00:50:21.240Z,81.79
2022-11-24T00:50:33.124Z,81.92
2022-11-24T00:50:45.055Z,81.96
2022-11-24T00:51:02.162Z,82.24
2022-11-24T00:51:16.409Z,82.20
2022-11-24T00:51:32.590Z,81.89
2022-11-24T00:51:44.471Z,81.79
2022-11-24T00:51:56.350Z,81.64
2022-11-24T00:52:08.254Z,81.72
2022-11-24T00:52:20.124Z,81.57
2022-11-24T00:52:32.050Z,81.63
2022-11-24T00:52:43.931Z,81.43
2022-11-24T00:52:55.822Z,81.81
2022-11-24T00:53:07.771Z,81.67
2022-11-24T00:53:19.643Z,81.79
2022-11-24T00:53:31.578Z,81.78
2022-11-24T00:53:43.777Z,81.58
2022-11-24T00:53:57.278Z,81.46
2022-11-24T00:54:09.292Z,81.42
2022-11-24T00:54:21.299Z,81.38
2022-11-24T00:54:33.344Z,81.31
2022-11-24T00:54:45.380Z,80.94
2022-11-24T00:54:57.277Z,81.02
2022-11-24T00:55:09.338Z,80.96
2022-11-24T00:55:21.517Z,81.13
2022-11-24T00:55:33.398Z,80.94
2022-11-24T00:55:49.477Z,80.89
2022-11-24T00:56:03.864Z,80.92
2022-11-24T00:56:16.083Z,80.87
2022-11-24T00:56:29.611Z,80.48
2022-11-24T00:56:41.499Z,80.50
2022-11-24T00:56:53.411Z,80.46
2022-11-24T00:57:05.281Z,80.30
2022-11-24T00:57:17.156Z,80.54
2022-11-24T00:57:29.037Z,80.25
2022-11-24T00:57:40.911Z,80.42
2022-11-24T00:57:52.802Z,80.27
2022-11-24T00:58:04.683Z,80.55
2022-11-24T00:58:16.561Z,80.49
2022-11-24T00:58:28.426Z,80.47
2022-11-24T00:58:40.877Z,80.13
2022-11-24T00:58:53.254Z,79.77
2022-11-24T00:59:05.146Z,79.77
2022-11-24T00:59:17.095Z,79.92
2022-11-24T00:59:29.003Z,79.61
2022-11-24T00:59:40.872Z,79.31
2022-11-24T00:59:52.758Z,79.67
2022-11-24T01:00:05.259Z,79.58
2022-11-24T01:00:18.469Z,79.62
2022-11-24T01:00:30.445Z,79.44
2022-11-24T01:00:42.375Z,79.66
2022-11-24T01:00:54.328Z,79.52
2022-11-24T01:01:20.633Z,79.58
2022-11-24T01:01:32.720Z,79.61
2022-11-24T01:01:44.788Z,80.03
2022-11-24T01:01:56.804Z,79.73
2022-11-24T01:02:08.846Z,79.69
2022-11-24T01:02:20.806Z,79.55
2022-11-24T01:02:32.784Z,79.50
2022-11-24T01:02:44.923Z,79.47
2022-11-24T01:02:56.880Z,79.63
2022-11-24T01:03:08.828Z,79.28
2022-11-24T01:03:21.361Z,79.28
2022-11-24T01:03:34.136Z,79.50
2022-11-24T01:03:47.320Z,79.47
2022-11-24T01:04:03.422Z,79.41
2022-11-24T01:04:15.401Z,79.70
2022-11-24T01:04:27.309Z,79.50
2022-11-24T01:04:39.177Z,79.69
2022-11-24T01:04:51.044Z,79.60
2022-11-24T01:05:03.243Z,79.85
2022-11-24T01:05:15.313Z,79.89
2022-11-24T01:05:27.236Z,79.64
2022-11-24T01:05:39.793Z,79.90
2022-11-24T01:05:51.679Z,79.87
2022-11-24T01:06:06.361Z,79.55
2022-11-24T01:06:23.945Z,79.76
2022-11-24T01:06:36.474Z,79.76
2022-11-24T01:06:48.375Z,79.79
2022-11-24T01:07:00.274Z,79.62
2022-11-24T01:07:12.252Z,79.64
2022-11-24T01:07:24.260Z,79.18
2022-11-24T01:07:36.303Z,79.46
2022-11-24T01:07:48.253Z,79.72
2022-11-24T01:08:00.164Z,79.40
2022-11-24T01:08:12.310Z,79.19
2022-11-24T01:08:24.201Z,79.57
2022-11-24T01:08:40.274Z,79.37
2022-11-24T01:08:52.587Z,79.19
2022-11-24T01:09:04.936Z,79.37
2022-11-24T01:09:16.847Z,79.18
2022-11-24T01:09:28.770Z,79.34
2022-11-24T01:09:43.079Z,79.59
2022-11-24T01:09:54.945Z,79.65
2022-11-24T01:10:07.325Z,79.66
2022-11-24T01:10:19.221Z,79.07
2022-11-24T01:10:31.188Z,79.04
2022-11-24T01:10:43.088Z,79.27
2022-11-24T01:10:54.969Z,79.08
2022-11-24T01:11:28.434Z,78.89
2022-11-24T01:11:58.750Z,78.96
2022-11-24T01:12:10.655Z,78.56
2022-11-24T01:12:22.531Z,78.86
2022-11-24T01:12:35.037Z,78.74
2022-11-24T01:12:47.747Z,78.55
2022-11-24T01:13:00.124Z,78.67
2022-11-24T01:13:13.214Z,78.76
2022-11-24T01:13:25.101Z,78.97
2022-11-24T01:13:37.644Z,78.75
2022-11-24T01:13:57.342Z,78.96
2022-11-24T01:14:09.215Z,78.96
2022-11-24T01:14:24.837Z,78.48
2022-11-24T01:14:36.799Z,78.34
2022-11-24T01:14:48.959Z,78.23
2022-11-24T01:15:00.945Z,78.40
2022-11-24T01:15:12.885Z,78.45
2022-11-24T01:15:25.227Z,78.18
2022-11-24T01:15:37.191Z,78.14
2022-11-24T01:15:49.190Z,78.24
2022-11-24T01:16:01.272Z,78.35
2022-11-24T01:16:24.123Z,78.41
2022-11-24T01:16:36.043Z,78.20
2022-11-24T01:16:48.596Z,78.18
2022-11-24T01:17:00.601Z,78.30
2022-11-24T01:17:12.556Z,78.05
2022-11-24T01:17:24.506Z,78.19
2022-11-24T01:17:36.371Z,77.77
2022-11-24T01:17:48.425Z,78.13
2022-11-24T01:18:00.323Z,77.76
2022-11-24T01:18:13.117Z,78.10
2022-11-24T01:18:25.015Z,77.93
2022-11-24T01:18:36.914Z,77.68
2022-11-24T01:18:49.566Z,78.04
2022-11-24T01:19:01.590Z,77.53
2022-11-24T01:19:13.621Z,77.50
2022-11-24T01:19:25.585Z,77.72
2022-11-24T01:19:37.507Z,77.86
2022-11-24T01:19:49.431Z,77.99
2022-11-24T01:20:01.380Z,78.03
2022-11-24T01:20:13.793Z,78.19
2022-11-24T01:20:25.670Z,77.94
2022-11-24T01:20:37.774Z,78.26
2022-11-24T01:20:49.652Z,78.21
2022-11-24T01:21:09.619Z,77.78
2022-11-24T01:21:22.882Z,77.77
2022-11-24T01:21:34.763Z,77.52
2022-11-24T01:21:46.894Z,77.71
2022-11-24T01:21:58.799Z,77.47
2022-11-24T01:22:10.677Z,77.68
2022-11-24T01:22:22.615Z,77.84
2022-11-24T01:22:34.905Z,77.63
2022-11-24T01:22:48.599Z,77.61
2022-11-24T01:23:00.603Z,77.74
2022-11-24T01:23:12.507Z,77.68
2022-11-24T01:23:24.394Z,77.67
2022-11-24T01:23:36.295Z,77.49
2022-11-24T01:23:49.174Z,77.54
2022-11-24T01:24:01.087Z,77.29
2022-11-24T01:24:13.347Z,77.49
2022-11-24T01:24:25.269Z,77.40
2022-11-24T01:24:37.174Z,77.33
2022-11-24T01:24:49.114Z,77.15
2022-11-24T01:25:01.014Z,77.03
2022-11-24T01:25:12.894Z,77.35
2022-11-24T01:25:24.862Z,77.12
2022-11-24T01:25:39.597Z,76.83
2022-11-24T01:25:51.513Z,77.10
2022-11-24T01:26:05.850Z,77.05
2022-11-24T01:26:20.657Z,77.24
2022-11-24T01:26:32.568Z,77.52
2022-11-24T01:26:44.446Z,77.47
2022-11-24T01:26:56.331Z,77.60
2022-11-24T01:27:08.695Z,77.57
2022-11-24T01:27:20.573Z,77.38
2022-11-24T01:27:32.730Z,77.37
2022-11-24T01:27:44.801Z,77.43
2022-11-24T01:27:56.695Z,77.21
2022-11-24T01:28:08.959Z,77.33
2022-11-24T01:28:20.839Z,77.32
2022-11-24T01:28:33.096Z,77.24
2022-11-24T01:28:47.467Z,76.98
2022-11-24T01:28:59.645Z,76.81
2022-11-24T01:29:12.221Z,77.14
2022-11-24T01:29:25.814Z,76.70
2022-11-24T01:29:37.698Z,76.87
2022-11-24T01:29:49.629Z,76.58
2022-11-24T01:30:01.921Z,76.59
2022-11-24T01:30:14.019Z,76.76
2022-11-24T01:30:25.910Z,76.50
2022-11-24T01:30:37.893Z,76.62
2022-11-24T01:31:04.929Z,76.38
2022-11-24T01:31:17.247Z,76.56
2022-11-24T01:31:29.227Z,76.91
2022-11-24T01:31:41.256Z,76.84
2022-11-24T01:31:53.182Z,76.70
2022-11-24T01:32:05.062Z,76.73
2022-11-24T01:32:16.935Z,77.01
2022-11-24T01:32:28.817Z,76.54
2022-11-24T01:32:40.707Z,76.75
2022-11-24T01:32:52.587Z,76.72
2022-11-24T01:33:05.004Z,76.95
2022-11-24T01:33:16.883Z,76.84
2022-11-24T01:33:28.859Z,76.67
2022-11-24T01:33:40.737Z,76.70
2022-11-24T01:33:52.940Z,76.41
2022-11-24T01:34:04.819Z,76.41
2022-11-24T01:34:16.802Z,76.76
2022-11-24T01:34:28.663Z,76.43
2022-11-24T01:34:40.525Z,76.71
2022-11-24T01:34:52.406Z,76.54
2022-11-24T01:35:05.586Z,76.77
2022-11-24T01:35:17.606Z,76.48
2022-11-24T01:35:29.484Z,76.67
2022-11-24T01:35:41.367Z,76.75
2022-11-24T01:35:53.739Z,76.72
2022-11-24T01:36:06.843Z,76.72
2022-11-24T01:36:19.838Z,76.51
2022-11-24T01:36:31.747Z,76.38
2022-11-24T01:36:43.626Z,76.74
2022-11-24T01:36:55.517Z,76.92
2022-11-24T01:37:07.418Z,76.70
2022-11-24T01:37:19.383Z,76.72
2022-11-24T01:37:31.826Z,76.39
2022-11-24T01:37:43.775Z,76.67
2022-11-24T01:37:55.911Z,76.79
2022-11-24T01:38:07.778Z,76.77
2022-11-24T01:38:19.999Z,76.54
2022-11-24T01:38:32.387Z,76.84
2022-11-24T01:38:44.253Z,76.74
2022-11-24T01:38:56.123Z,76.82
2022-11-24T01:39:08.029Z,77.01
2022-11-24T01:39:19.958Z,77.20
2022-11-24T01:39:31.835Z,76.86
2022-11-24T01:39:43.717Z,76.73
2022-11-24T01:39:55.653Z,76.72
2022-11-24T01:40:08.382Z,76.96
2022-11-24T01:40:20.529Z,76.66
2022-11-24T01:40:32.421Z,76.78
2022-11-24T01:40:44.368Z,76.79
2022-11-24T01:41:05.344Z,76.34
2022-11-24T01:41:23.098Z,76.74
2022-11-24T01:41:35.633Z,76.51
2022-11-24T01:41:47.602Z,76.56
2022-11-24T01:42:02.105Z,76.55
2022-11-24T01:42:13.979Z,76.61
2022-11-24T01:42:25.852Z,76.22
2022-11-24T01:42:47.839Z,76.76
2022-11-24T01:42:59.738Z,76.42
2022-11-24T01:43:20.121Z,76.87
2022-11-24T01:43:32.718Z,77.15
2022-11-24T01:43:45.583Z,76.95
2022-11-24T01:43:57.459Z,76.96
2022-11-24T01:44:25.898Z,77.31
2022-11-24T01:44:37.786Z,77.02
2022-11-24T01:45:28.073Z,77.32
2022-11-24T01:45:43.172Z,77.29
2022-11-24T01:45:56.269Z,77.27
2022-11-24T01:46:19.950Z,77.02
2022-11-24T01:46:41.786Z,77.34
2022-11-24T01:47:00.169Z,77.54
2022-11-24T01:47:11.978Z,77.15
2022-11-24T01:47:36.285Z,77.31
2022-11-24T01:47:48.429Z,77.54
2022-11-24T01:48:05.268Z,77.30
2022-11-24T01:48:27.286Z,77.31
2022-11-24T01:48:49.091Z,77.39
2022-11-24T01:49:26.003Z,77.29
2022-11-24T01:49:44.092Z,77.35
2022-11-24T01:49:59.910Z,77.53
2022-11-24T01:50:16.271Z,77.19
2022-11-24T01:50:28.233Z,77.28
2022-11-24T01:50:41.977Z,77.27
2022-11-24T01:51:06.971Z,77.43
2022-11-24T01:51:25.338Z,77.22
2022-11-24T01:51:42.420Z,77.64
2022-11-24T01:52:15.273Z,77.14
2022-11-24T01:52:45.720Z,77.29
2022-11-24T01:52:58.555Z,76.80
2022-11-24T01:53:12.711Z,76.99
2022-11-24T01:53:25.454Z,77.18
2022-11-24T01:53:41.810Z,76.96
2022-11-24T01:53:59.249Z,77.13
2022-11-24T01:54:25.111Z,77.47
2022-11-24T01:54:41.495Z,77.32
2022-11-24T01:55:00.525Z,77.34
2022-11-24T01:55:20.458Z,77.36
2022-11-24T01:55:37.788Z,78.02
2022-11-24T01:55:51.782Z,78.28
2022-11-24T01:56:05.259Z,78.01
2022-11-24T01:56:18.063Z,78.17
2022-11-24T01:56:30.996Z,77.82
2022-11-24T01:56:47.175Z,78.08
2022-11-24T01:57:06.474Z,78.09
2022-11-24T01:57:46.145Z,77.47
2022-11-24T01:58:07.871Z,77.44
2022-11-24T01:58:24.196Z,77.76
2022-11-24T01:58:37.876Z,77.69
2022-11-24T01:58:52.170Z,77.29
2022-11-24T01:59:07.336Z,76.91
2022-11-24T01:59:21.008Z,76.85
2022-11-24T01:59:33.113Z,77.07
2022-11-24T01:59:48.149Z,77.29
2022-11-24T02:00:04.555Z,77.18
2022-11-24T02:00:17.000Z,76.96
2022-11-24T02:00:29.028Z,76.86
2022-11-24T02:00:44.040Z,77.14
2022-11-24T02:00:55.964Z,76.43
2022-11-24T02:01:08.598Z,76.82
2022-11-24T02:01:20.627Z,76.43
2022-11-24T02:01:33.020Z,76.86
2022-11-24T02:01:46.966Z,77.00
2022-11-24T02:01:59.130Z,77.00
2022-11-24T02:02:11.398Z,76.85
2022-11-24T02:02:25.746Z,77.20
2022-11-24T02:02:38.195Z,77.13
2022-11-24T02:02:50.333Z,77.52
2022-11-24T02:03:02.665Z,77.52
2022-11-24T02:03:20.192Z,77.61
2022-11-24T02:03:37.679Z,77.40
2022-11-24T02:03:50.508Z,77.39
2022-11-24T02:04:04.925Z,77.53
2022-11-24T02:04:23.746Z,77.40
2022-11-24T02:04:36.921Z,77.18
2022-11-24T02:04:50.047Z,76.81
2022-11-24T02:05:10.833Z,76.66
2022-11-24T02:05:39.123Z,76.66
2022-11-24T02:06:20.941Z,76.69
2022-11-24T02:06:35.209Z,76.74
2022-11-24T02:06:48.138Z,77.11
2022-11-24T02:07:03.318Z,76.71
2022-11-24T02:07:15.648Z,76.81
2022-11-24T02:07:27.750Z,76.84
2022-11-24T02:07:39.790Z,76.69
2022-11-24T02:07:55.581Z,76.86
2022-11-24T02:08:25.841Z,76.84
2022-11-24T02:09:02.528Z,76.54
2022-11-24T02:09:30.755Z,76.86
2022-11-24T02:10:11.877Z,76.66
2022-11-24T02:10:23.856Z,76.61
2022-11-24T02:10:36.867Z,77.13
2022-11-24T02:10:48.751Z,76.81
2022-11-24T02:11:04.205Z,76.88
2022-11-24T02:11:16.126Z,76.92
2022-11-24T02:11:35.032Z,77.42
2022-11-24T02:11:47.285Z,77.37
2022-11-24T02:12:02.353Z,76.96
2022-11-24T02:12:14.321Z,77.13
2022-11-24T02:12:27.180Z,77.23
2022-11-24T02:12:46.538Z,76.79
2022-11-24T02:13:00.124Z,76.92
2022-11-24T02:13:12.920Z,77.13
2022-11-24T02:13:25.042Z,76.91
2022-11-24T02:13:39.743Z,76.96
2022-11-24T02:13:53.773Z,76.79
2022-11-24T02:14:10.060Z,76.63
2022-11-24T02:14:24.531Z,76.49
2022-11-24T02:14:38.063Z,75.98
2022-11-24T02:14:51.576Z,76.04
2022-11-24T02:15:03.697Z,76.14
2022-11-24T02:15:18.009Z,76.29
2022-11-24T02:15:30.044Z,76.26
2022-11-24T02:15:42.777Z,76.54
2022-11-24T02:15:55.236Z,76.35
2022-11-24T02:16:10.284Z,76.30
2022-11-24T02:16:22.314Z,76.08
2022-11-24T02:16:36.010Z,75.97
2022-11-24T02:16:51.825Z,76.23
2022-11-24T02:17:03.908Z,76.19
2022-11-24T02:17:15.791Z,76.02
2022-11-24T02:17:27.716Z,76.26
2022-11-24T02:17:39.579Z,76.30
2022-11-24T02:17:51.509Z,76.07
2022-11-24T02:18:03.592Z,76.33
2022-11-24T02:18:15.487Z,76.30
2022-11-24T02:18:27.428Z,76.31
2022-11-24T02:18:41.565Z,76.67
2022-11-24T02:18:53.802Z,76.46
2022-11-24T02:19:16.125Z,76.35
2022-11-24T02:19:44.783Z,76.75
2022-11-24T02:19:59.819Z,76.51
2022-11-24T02:20:13.215Z,76.78
2022-11-24T02:20:26.197Z,76.71
2022-11-24T02:20:38.216Z,76.44
2022-11-24T02:20:50.126Z,76.55
2022-11-24T02:21:02.032Z,76.84
2022-11-24T02:21:16.246Z,76.53
2022-11-24T02:21:28.206Z,76.76
2022-11-24T02:21:40.115Z,76.62
2022-11-24T02:21:52.026Z,77.10
2022-11-24T02:22:04.754Z,76.71
2022-11-24T02:22:44.892Z,76.74
2022-11-24T02:23:05.802Z,76.90
2022-11-24T02:23:33.014Z,76.97
2022-11-24T02:23:48.767Z,76.44
2022-11-24T02:24:19.093Z,76.08
2022-11-24T02:24:31.080Z,76.05
2022-11-24T02:24:55.007Z,76.21
2022-11-24T02:25:11.736Z,76.35
2022-11-24T02:25:34.875Z,76.38
2022-11-24T02:26:13.891Z,76.09
2022-11-24T02:26:30.985Z,76.39
2022-11-24T02:26:46.094Z,76.15
2022-11-24T02:26:58.015Z,76.54
2022-11-24T02:27:10.966Z,76.38
2022-11-24T02:27:23.348Z,76.26
2022-11-24T02:27:35.726Z,75.78
2022-11-24T02:27:52.348Z,75.87
2022-11-24T02:28:10.250Z,76.00
2022-11-24T02:28:23.788Z,75.96
2022-11-24T02:28:36.320Z,76.06
2022-11-24T02:28:48.762Z,76.21
2022-11-24T02:29:00.827Z,76.44
2022-11-24T02:29:14.224Z,76.42
2022-11-24T02:29:26.168Z,76.33
2022-11-24T02:29:38.468Z,76.29
2022-11-24T02:29:50.521Z,76.52
2022-11-24T02:30:02.500Z,76.40
2022-11-24T02:30:14.566Z,76.22
2022-11-24T02:30:26.569Z,75.91
2022-11-24T02:30:39.230Z,75.62
2022-11-24T02:30:51.453Z,75.36
2022-11-24T02:31:05.592Z,75.48
2022-11-24T02:31:18.204Z,75.56
2022-11-24T02:31:30.374Z,75.91
2022-11-24T02:31:48.050Z,75.75
2022-11-24T02:32:04.643Z,76.02
2022-11-24T02:32:16.707Z,76.42
2022-11-24T02:32:31.853Z,76.29
2022-11-24T02:32:43.776Z,76.18
2022-11-24T02:32:55.699Z,76.33
2022-11-24T02:33:07.577Z,76.24
2022-11-24T02:33:21.737Z,76.41
2022-11-24T02:33:34.227Z,76.40
2022-11-24T02:33:59.102Z,76.21
2022-11-24T02:34:11.006Z,76.49
2022-11-24T02:34:22.905Z,76.52
2022-11-24T02:34:35.201Z,76.34
2022-11-24T02:34:47.211Z,75.85
2022-11-24T02:35:04.484Z,76.05
2022-11-24T02:35:17.566Z,75.71
2022-11-24T02:35:29.470Z,75.70
2022-11-24T02:35:41.391Z,75.50
2022-11-24T02:35:53.381Z,75.53
2022-11-24T02:36:05.601Z,75.78
2022-11-24T02:36:17.572Z,75.79
2022-11-24T02:36:29.760Z,76.33
2022-11-24T02:36:41.686Z,76.17
2022-11-24T02:36:53.647Z,75.79
2022-11-24T02:37:05.518Z,75.79
2022-11-24T02:37:17.460Z,75.65
2022-11-24T02:37:29.426Z,75.85
2022-11-24T02:37:41.296Z,75.66
2022-11-24T02:37:53.182Z,75.82
2022-11-24T02:38:05.081Z,75.45
2022-11-24T02:38:17.055Z,75.55
2022-11-24T02:38:34.208Z,75.65
2022-11-24T02:38:46.107Z,75.64
2022-11-24T02:38:58.224Z,75.47
2022-11-24T02:39:14.468Z,75.73
2022-11-24T02:39:26.507Z,75.49
2022-11-24T02:39:38.414Z,75.79
2022-11-24T02:39:50.284Z,75.66
2022-11-24T02:40:02.186Z,75.77
2022-11-24T02:40:16.503Z,75.78
2022-11-24T02:40:30.873Z,76.06
2022-11-24T02:40:46.293Z,76.13
2022-11-24T02:41:00.474Z,76.17
2022-11-24T02:41:16.777Z,76.11
2022-11-24T02:41:29.011Z,76.14
2022-11-24T02:41:51.229Z,76.25
2022-11-24T02:42:07.978Z,75.75
2022-11-24T02:42:19.930Z,75.61
2022-11-24T02:42:38.280Z,75.48
2022-11-24T02:42:54.783Z,75.62
2022-11-24T02:43:13.012Z,74.78
2022-11-24T02:43:25.611Z,74.70
2022-11-24T02:43:42.601Z,75.00
2022-11-24T02:43:58.360Z,75.54
2022-11-24T02:44:13.994Z,75.31
2022-11-24T02:44:32.740Z,75.28
2022-11-24T02:44:48.985Z,74.83
2022-11-24T02:45:01.603Z,74.83
2022-11-24T02:45:16.368Z,75.08
2022-11-24T02:45:29.426Z,75.17
2022-11-24T02:45:41.478Z,75.37
2022-11-24T02:45:53.394Z,75.15
2022-11-24T02:46:05.494Z,75.66
2022-11-24T02:46:17.684Z,75.47
2022-11-24T02:46:29.646Z,74.95
2022-11-24T02:46:41.636Z,75.39
2022-11-24T02:47:08.156Z,75.85
2022-11-24T02:47:20.059Z,75.88
2022-11-24T02:47:31.924Z,75.92
2022-11-24T02:47:44.031Z,76.28
2022-11-24T02:47:55.952Z,76.05
2022-11-24T02:48:07.867Z,76.04
2022-11-24T02:48:20.639Z,76.06
2022-11-24T02:48:32.682Z,76.21
2022-11-24T02:48:44.634Z,76.36
2022-11-24T02:48:56.527Z,76.45
2022-11-24T02:49:08.450Z,76.63
2022-11-24T02:49:20.317Z,76.46
2022-11-24T02:49:32.650Z,76.85
2022-11-24T02:49:44.522Z,76.76
2022-11-24T02:49:56.458Z,76.73
2022-11-24T02:50:08.675Z,77.30
2022-11-24T02:50:20.570Z,77.23
2022-11-24T02:50:32.579Z,77.02
2022-11-24T02:50:44.519Z,76.87
2022-11-24T02:50:56.459Z,77.11
2022-11-24T02:51:08.382Z,77.02
2022-11-24T02:51:20.285Z,77.01
2022-11-24T02:51:34.291Z,76.73
2022-11-24T02:51:46.174Z,76.80
2022-11-24T02:51:58.174Z,76.45
2022-11-24T02:52:10.065Z,76.68
2022-11-24T02:52:21.985Z,76.53
2022-11-24T02:52:33.885Z,76.44
2022-11-24T02:52:45.871Z,76.21
2022-11-24T02:52:57.744Z,76.37
2022-11-24T02:53:09.988Z,76.39
2022-11-24T02:53:21.979Z,76.40
2022-11-24T02:53:34.157Z,76.43
2022-11-24T02:53:46.179Z,76.08
2022-11-24T02:53:58.199Z,76.01
2022-11-24T02:54:10.179Z,76.43
2022-11-24T02:54:22.111Z,76.14
2022-11-24T02:54:34.823Z,75.96
2022-11-24T02:54:46.919Z,75.97
2022-11-24T02:54:58.819Z,75.83
2022-11-24T02:55:10.855Z,75.91
2022-11-24T02:55:23.560Z,76.04
2022-11-24T02:55:35.467Z,76.08
2022-11-24T02:55:47.603Z,75.86
2022-11-24T02:55:59.469Z,76.02
2022-11-24T02:56:11.405Z,75.92